sensor_id;sensor_type;location;lat;lon;timestamp;P1;durP1;ratioP1;P2;durP2;ratioP2
15946;SDS011;8072;52.554;7.966;2023-02-15T00:01:10;18.27;;;11.10;;
15946;SDS011;8072;52.554;7.966;2023-02-15T00:03:37;18.30;;;11.47;;
15946;SDS011;8072;52.554;7.966;2023-02-15T00:06:03;18.17;;;11.67;;
15946;SDS011;8072;52.554;7.966;2023-02-15T00:08:30;19.30;;;11.50;;
15946;SDS011;8072;52.554;7.966;2023-02-15T00:11:06;19.97;;;11.47;;
15946;SDS011;8072;52.554;7.966;2023-02-15T00:13:33;18.93;;;11.30;;
15946;SDS011;8072;52.554;7.966;2023-02-15T00:16:05;19.33;;;11.00;;
15946;SDS011;8072;52.554;7.966;2023-02-15T00:18:32;20.53;;;11.90;;
15946;SDS011;8072;52.554;7.966;2023-02-15T00:20:58;16.23;;;10.37;;
15946;SDS011;8072;52.554;7.966;2023-02-15T00:23:28;19.37;;;11.10;;
15946;SDS011;8072;52.554;7.966;2023-02-15T00:26:02;16.53;;;11.57;;
15946;SDS011;8072;52.554;7.966;2023-02-15T00:28:32;19.47;;;11.93;;
15946;SDS011;8072;52.554;7.966;2023-02-15T00:33:34;19.77;;;10.53;;
15946;SDS011;8072;52.554;7.966;2023-02-15T00:36:00;16.50;;;10.00;;
15946;SDS011;8072;52.554;7.966;2023-02-15T00:38:29;16.43;;;9.33;;
15946;SDS011;8072;52.554;7.966;2023-02-15T00:40:59;17.43;;;9.97;;
15946;SDS011;8072;52.554;7.966;2023-02-15T00:43:26;15.47;;;9.10;;
15946;SDS011;8072;52.554;7.966;2023-02-15T00:45:54;11.03;;;8.03;;
15946;SDS011;8072;52.554;7.966;2023-02-15T00:48:20;11.10;;;8.03;;
15946;SDS011;8072;52.554;7.966;2023-02-15T00:50:51;11.73;;;7.97;;
15946;SDS011;8072;52.554;7.966;2023-02-15T00:53:18;10.87;;;7.80;;
15946;SDS011;8072;52.554;7.966;2023-02-15T00:55:44;10.47;;;7.83;;
15946;SDS011;8072;52.554;7.966;2023-02-15T00:58:10;11.87;;;8.60;;
15946;SDS011;8072;52.554;7.966;2023-02-15T01:00:36;10.47;;;7.63;;
15946;SDS011;8072;52.554;7.966;2023-02-15T01:03:03;12.90;;;8.97;;
15946;SDS011;8072;52.554;7.966;2023-02-15T01:05:29;11.07;;;8.17;;
15946;SDS011;8072;52.554;7.966;2023-02-15T01:07:56;12.87;;;8.00;;
15946;SDS011;8072;52.554;7.966;2023-02-15T01:10:22;14.97;;;9.57;;
15946;SDS011;8072;52.554;7.966;2023-02-15T01:12:49;13.83;;;9.00;;
15946;SDS011;8072;52.554;7.966;2023-02-15T01:15:15;19.80;;;11.30;;
15946;SDS011;8072;52.554;7.966;2023-02-15T01:17:41;17.03;;;10.87;;
15946;SDS011;8072;52.554;7.966;2023-02-15T01:20:09;21.10;;;10.70;;
15946;SDS011;8072;52.554;7.966;2023-02-15T01:22:35;17.10;;;10.07;;
15946;SDS011;8072;52.554;7.966;2023-02-15T01:25:00;17.80;;;10.97;;
15946;SDS011;8072;52.554;7.966;2023-02-15T01:27:26;16.97;;;10.27;;
15946;SDS011;8072;52.554;7.966;2023-02-15T01:29:55;17.03;;;10.20;;
15946;SDS011;8072;52.554;7.966;2023-02-15T01:32:21;15.80;;;9.77;;
15946;SDS011;8072;52.554;7.966;2023-02-15T01:34:47;17.53;;;10.70;;
15946;SDS011;8072;52.554;7.966;2023-02-15T01:37:13;18.07;;;10.57;;
15946;SDS011;8072;52.554;7.966;2023-02-15T01:39:38;16.33;;;10.17;;
15946;SDS011;8072;52.554;7.966;2023-02-15T01:42:04;17.20;;;10.80;;
15946;SDS011;8072;52.554;7.966;2023-02-15T01:44:47;19.33;;;10.33;;
15946;SDS011;8072;52.554;7.966;2023-02-15T01:47:18;17.43;;;10.20;;
15946;SDS011;8072;52.554;7.966;2023-02-15T01:49:53;17.73;;;10.43;;
15946;SDS011;8072;52.554;7.966;2023-02-15T01:52:40;21.20;;;11.13;;
15946;SDS011;8072;52.554;7.966;2023-02-15T01:55:21;15.53;;;10.30;;
15946;SDS011;8072;52.554;7.966;2023-02-15T01:57:49;18.60;;;10.27;;
15946;SDS011;8072;52.554;7.966;2023-02-15T02:00:16;18.27;;;10.43;;
15946;SDS011;8072;52.554;7.966;2023-02-15T02:02:42;18.37;;;10.47;;
15946;SDS011;8072;52.554;7.966;2023-02-15T02:05:10;19.23;;;10.47;;
15946;SDS011;8072;52.554;7.966;2023-02-15T02:07:40;16.97;;;10.47;;
15946;SDS011;8072;52.554;7.966;2023-02-15T02:10:10;17.70;;;10.70;;
15946;SDS011;8072;52.554;7.966;2023-02-15T02:12:39;19.13;;;11.23;;
15946;SDS011;8072;52.554;7.966;2023-02-15T02:15:08;19.17;;;10.90;;
15946;SDS011;8072;52.554;7.966;2023-02-15T02:33:51;17.00;;;10.67;;
15946;SDS011;8072;52.554;7.966;2023-02-15T02:39:22;18.63;;;10.37;;
15946;SDS011;8072;52.554;7.966;2023-02-15T02:47:19;20.17;;;11.50;;
15946;SDS011;8072;52.554;7.966;2023-02-15T02:50:00;20.07;;;11.50;;
15946;SDS011;8072;52.554;7.966;2023-02-15T02:55:05;21.97;;;12.07;;
15946;SDS011;8072;52.554;7.966;2023-02-15T02:57:39;19.70;;;11.10;;
15946;SDS011;8072;52.554;7.966;2023-02-15T03:00:11;18.00;;;11.20;;
15946;SDS011;8072;52.554;7.966;2023-02-15T03:02:39;20.83;;;12.23;;
15946;SDS011;8072;52.554;7.966;2023-02-15T03:05:08;17.30;;;11.13;;
15946;SDS011;8072;52.554;7.966;2023-02-15T03:07:40;17.90;;;9.93;;
15946;SDS011;8072;52.554;7.966;2023-02-15T03:10:07;15.83;;;9.67;;
15946;SDS011;8072;52.554;7.966;2023-02-15T03:12:35;17.33;;;10.43;;
15946;SDS011;8072;52.554;7.966;2023-02-15T03:15:09;15.83;;;10.27;;
15946;SDS011;8072;52.554;7.966;2023-02-15T03:17:40;17.33;;;9.70;;
15946;SDS011;8072;52.554;7.966;2023-02-15T03:20:20;17.20;;;9.83;;
15946;SDS011;8072;52.554;7.966;2023-02-15T03:22:56;18.10;;;10.73;;
15946;SDS011;8072;52.554;7.966;2023-02-15T03:25:27;18.77;;;10.47;;
15946;SDS011;8072;52.554;7.966;2023-02-15T03:28:03;18.63;;;10.77;;
15946;SDS011;8072;52.554;7.966;2023-02-15T03:30:32;17.33;;;10.13;;
15946;SDS011;8072;52.554;7.966;2023-02-15T03:33:00;15.90;;;10.17;;
15946;SDS011;8072;52.554;7.966;2023-02-15T03:35:31;14.97;;;9.47;;
15946;SDS011;8072;52.554;7.966;2023-02-15T03:38:04;15.80;;;10.10;;
15946;SDS011;8072;52.554;7.966;2023-02-15T03:40:40;17.67;;;10.50;;
15946;SDS011;8072;52.554;7.966;2023-02-15T03:43:30;18.00;;;10.10;;
15946;SDS011;8072;52.554;7.966;2023-02-15T03:46:19;17.33;;;9.87;;
15946;SDS011;8072;52.554;7.966;2023-02-15T03:48:53;17.17;;;10.43;;
15946;SDS011;8072;52.554;7.966;2023-02-15T03:51:28;18.00;;;10.67;;
15946;SDS011;8072;52.554;7.966;2023-02-15T03:56:35;20.50;;;10.70;;
15946;SDS011;8072;52.554;7.966;2023-02-15T03:59:03;14.93;;;8.93;;
15946;SDS011;8072;52.554;7.966;2023-02-15T04:04:36;17.07;;;10.23;;
15946;SDS011;8072;52.554;7.966;2023-02-15T04:07:04;15.73;;;9.87;;
15946;SDS011;8072;52.554;7.966;2023-02-15T04:09:31;18.50;;;10.97;;
15946;SDS011;8072;52.554;7.966;2023-02-15T04:12:16;18.43;;;9.97;;
15946;SDS011;8072;52.554;7.966;2023-02-15T04:14:41;19.70;;;11.03;;
15946;SDS011;8072;52.554;7.966;2023-02-15T04:17:26;16.90;;;10.37;;
15946;SDS011;8072;52.554;7.966;2023-02-15T04:19:52;16.07;;;10.10;;
15946;SDS011;8072;52.554;7.966;2023-02-15T04:22:36;18.47;;;10.10;;
15946;SDS011;8072;52.554;7.966;2023-02-15T04:25:20;19.73;;;10.57;;
15946;SDS011;8072;52.554;7.966;2023-02-15T04:27:50;18.23;;;10.30;;
15946;SDS011;8072;52.554;7.966;2023-02-15T04:30:18;19.77;;;11.03;;
15946;SDS011;8072;52.554;7.966;2023-02-15T04:32:46;18.00;;;11.10;;
15946;SDS011;8072;52.554;7.966;2023-02-15T04:35:13;17.53;;;11.60;;
15946;SDS011;8072;52.554;7.966;2023-02-15T04:37:40;21.00;;;11.67;;
15946;SDS011;8072;52.554;7.966;2023-02-15T04:40:07;19.60;;;11.43;;
15946;SDS011;8072;52.554;7.966;2023-02-15T04:42:35;20.07;;;11.27;;
15946;SDS011;8072;52.554;7.966;2023-02-15T04:45:01;18.13;;;11.13;;
15946;SDS011;8072;52.554;7.966;2023-02-15T04:47:27;21.83;;;10.97;;
15946;SDS011;8072;52.554;7.966;2023-02-15T04:49:53;18.40;;;11.03;;
15946;SDS011;8072;52.554;7.966;2023-02-15T04:52:20;21.70;;;12.27;;
15946;SDS011;8072;52.554;7.966;2023-02-15T04:54:47;20.73;;;10.53;;
15946;SDS011;8072;52.554;7.966;2023-02-15T04:57:13;21.53;;;10.80;;
15946;SDS011;8072;52.554;7.966;2023-02-15T04:59:39;17.37;;;10.67;;
15946;SDS011;8072;52.554;7.966;2023-02-15T05:02:05;20.37;;;10.87;;
15946;SDS011;8072;52.554;7.966;2023-02-15T05:04:31;19.17;;;11.83;;
15946;SDS011;8072;52.554;7.966;2023-02-15T05:06:57;19.67;;;11.40;;
15946;SDS011;8072;52.554;7.966;2023-02-15T05:09:22;16.50;;;9.77;;
15946;SDS011;8072;52.554;7.966;2023-02-15T05:11:48;16.50;;;10.57;;
15946;SDS011;8072;52.554;7.966;2023-02-15T05:14:14;16.70;;;9.93;;
15946;SDS011;8072;52.554;7.966;2023-02-15T05:16:40;17.97;;;10.40;;
15946;SDS011;8072;52.554;7.966;2023-02-15T05:19:05;16.80;;;10.47;;
15946;SDS011;8072;52.554;7.966;2023-02-15T05:21:31;17.87;;;10.70;;
15946;SDS011;8072;52.554;7.966;2023-02-15T05:23:58;16.23;;;9.80;;
15946;SDS011;8072;52.554;7.966;2023-02-15T05:26:24;17.37;;;10.03;;
15946;SDS011;8072;52.554;7.966;2023-02-15T05:29:08;19.97;;;11.63;;
15946;SDS011;8072;52.554;7.966;2023-02-15T05:31:35;19.60;;;10.63;;
15946;SDS011;8072;52.554;7.966;2023-02-15T05:34:01;18.07;;;10.63;;
15946;SDS011;8072;52.554;7.966;2023-02-15T05:36:27;21.70;;;11.00;;
15946;SDS011;8072;52.554;7.966;2023-02-15T05:38:53;18.37;;;10.47;;
15946;SDS011;8072;52.554;7.966;2023-02-15T05:41:19;15.63;;;9.70;;
15946;SDS011;8072;52.554;7.966;2023-02-15T05:43:45;17.37;;;10.60;;
15946;SDS011;8072;52.554;7.966;2023-02-15T05:46:11;18.47;;;10.33;;
15946;SDS011;8072;52.554;7.966;2023-02-15T05:48:37;19.20;;;10.87;;
15946;SDS011;8072;52.554;7.966;2023-02-15T05:51:10;18.47;;;10.57;;
15946;SDS011;8072;52.554;7.966;2023-02-15T05:53:38;19.03;;;11.23;;
15946;SDS011;8072;52.554;7.966;2023-02-15T05:56:05;17.23;;;11.00;;
15946;SDS011;8072;52.554;7.966;2023-02-15T05:58:33;19.40;;;10.37;;
15946;SDS011;8072;52.554;7.966;2023-02-15T06:01:11;22.57;;;11.07;;
15946;SDS011;8072;52.554;7.966;2023-02-15T06:03:37;17.63;;;10.33;;
15946;SDS011;8072;52.554;7.966;2023-02-15T06:06:03;21.30;;;10.67;;
15946;SDS011;8072;52.554;7.966;2023-02-15T06:08:30;17.30;;;10.00;;
15946;SDS011;8072;52.554;7.966;2023-02-15T06:10:56;20.33;;;11.10;;
15946;SDS011;8072;52.554;7.966;2023-02-15T06:13:22;16.77;;;10.60;;
15946;SDS011;8072;52.554;7.966;2023-02-15T06:15:48;19.53;;;10.40;;
15946;SDS011;8072;52.554;7.966;2023-02-15T06:18:13;16.70;;;10.80;;
15946;SDS011;8072;52.554;7.966;2023-02-15T06:20:39;20.10;;;11.53;;
15946;SDS011;8072;52.554;7.966;2023-02-15T06:23:05;17.53;;;11.23;;
15946;SDS011;8072;52.554;7.966;2023-02-15T06:25:30;19.60;;;11.20;;
15946;SDS011;8072;52.554;7.966;2023-02-15T06:27:56;16.60;;;10.30;;
15946;SDS011;8072;52.554;7.966;2023-02-15T06:30:22;19.40;;;11.33;;
15946;SDS011;8072;52.554;7.966;2023-02-15T06:32:48;16.87;;;10.73;;
15946;SDS011;8072;52.554;7.966;2023-02-15T06:35:13;20.03;;;10.60;;
15946;SDS011;8072;52.554;7.966;2023-02-15T06:37:39;19.00;;;11.50;;
15946;SDS011;8072;52.554;7.966;2023-02-15T06:40:05;16.03;;;10.03;;
15946;SDS011;8072;52.554;7.966;2023-02-15T06:42:31;20.97;;;11.73;;
15946;SDS011;8072;52.554;7.966;2023-02-15T06:44:57;21.20;;;12.40;;
15946;SDS011;8072;52.554;7.966;2023-02-15T06:47:25;20.60;;;11.67;;
15946;SDS011;8072;52.554;7.966;2023-02-15T06:49:50;17.00;;;10.97;;
15946;SDS011;8072;52.554;7.966;2023-02-15T06:52:16;17.80;;;10.60;;
15946;SDS011;8072;52.554;7.966;2023-02-15T06:54:42;18.73;;;11.60;;
15946;SDS011;8072;52.554;7.966;2023-02-15T06:57:08;19.37;;;11.50;;
15946;SDS011;8072;52.554;7.966;2023-02-15T06:59:34;20.10;;;12.10;;
15946;SDS011;8072;52.554;7.966;2023-02-15T07:02:00;19.43;;;11.97;;
15946;SDS011;8072;52.554;7.966;2023-02-15T07:04:25;19.20;;;11.97;;
15946;SDS011;8072;52.554;7.966;2023-02-15T07:06:53;21.97;;;12.83;;
15946;SDS011;8072;52.554;7.966;2023-02-15T07:09:19;20.27;;;11.30;;
15946;SDS011;8072;52.554;7.966;2023-02-15T07:11:45;19.27;;;11.00;;
15946;SDS011;8072;52.554;7.966;2023-02-15T07:14:29;22.67;;;12.10;;
15946;SDS011;8072;52.554;7.966;2023-02-15T07:16:55;21.00;;;11.73;;
15946;SDS011;8072;52.554;7.966;2023-02-15T07:19:20;22.47;;;12.17;;
15946;SDS011;8072;52.554;7.966;2023-02-15T07:21:46;23.40;;;12.00;;
15946;SDS011;8072;52.554;7.966;2023-02-15T07:24:12;21.10;;;13.17;;
15946;SDS011;8072;52.554;7.966;2023-02-15T07:26:38;21.13;;;12.10;;
15946;SDS011;8072;52.554;7.966;2023-02-15T07:29:04;21.37;;;12.90;;
15946;SDS011;8072;52.554;7.966;2023-02-15T07:31:30;22.33;;;12.93;;
15946;SDS011;8072;52.554;7.966;2023-02-15T07:33:55;22.70;;;12.80;;
15946;SDS011;8072;52.554;7.966;2023-02-15T07:36:21;24.73;;;13.37;;
15946;SDS011;8072;52.554;7.966;2023-02-15T07:38:47;23.00;;;12.83;;
15946;SDS011;8072;52.554;7.966;2023-02-15T07:41:13;21.30;;;12.83;;
15946;SDS011;8072;52.554;7.966;2023-02-15T07:43:41;21.77;;;12.10;;
15946;SDS011;8072;52.554;7.966;2023-02-15T07:46:09;21.80;;;12.60;;
15946;SDS011;8072;52.554;7.966;2023-02-15T07:48:41;23.00;;;12.73;;
15946;SDS011;8072;52.554;7.966;2023-02-15T07:51:09;24.20;;;14.17;;
15946;SDS011;8072;52.554;7.966;2023-02-15T07:53:36;25.23;;;13.50;;
15946;SDS011;8072;52.554;7.966;2023-02-15T07:56:07;24.70;;;13.53;;
15946;SDS011;8072;52.554;7.966;2023-02-15T07:58:35;22.13;;;12.83;;
15946;SDS011;8072;52.554;7.966;2023-02-15T08:03:56;21.53;;;13.13;;
15946;SDS011;8072;52.554;7.966;2023-02-15T08:06:22;28.93;;;15.47;;
15946;SDS011;8072;52.554;7.966;2023-02-15T08:08:49;25.50;;;14.73;;
15946;SDS011;8072;52.554;7.966;2023-02-15T08:11:17;24.13;;;14.13;;
15946;SDS011;8072;52.554;7.966;2023-02-15T08:13:59;26.87;;;14.77;;
15946;SDS011;8072;52.554;7.966;2023-02-15T08:21:37;25.43;;;14.80;;
15946;SDS011;8072;52.554;7.966;2023-02-15T08:24:06;27.20;;;15.70;;
15946;SDS011;8072;52.554;7.966;2023-02-15T08:26:33;30.90;;;16.13;;
15946;SDS011;8072;52.554;7.966;2023-02-15T08:28:59;29.27;;;15.40;;
15946;SDS011;8072;52.554;7.966;2023-02-15T08:31:26;30.23;;;15.90;;
15946;SDS011;8072;52.554;7.966;2023-02-15T08:33:53;29.47;;;15.53;;
15946;SDS011;8072;52.554;7.966;2023-02-15T08:36:21;26.73;;;15.07;;
15946;SDS011;8072;52.554;7.966;2023-02-15T08:38:48;28.37;;;16.03;;
15946;SDS011;8072;52.554;7.966;2023-02-15T08:41:18;30.80;;;16.03;;
15946;SDS011;8072;52.554;7.966;2023-02-15T08:43:52;29.43;;;15.77;;
15946;SDS011;8072;52.554;7.966;2023-02-15T08:46:20;29.77;;;14.97;;
15946;SDS011;8072;52.554;7.966;2023-02-15T08:48:46;29.67;;;16.00;;
15946;SDS011;8072;52.554;7.966;2023-02-15T08:51:22;30.67;;;16.30;;
15946;SDS011;8072;52.554;7.966;2023-02-15T08:53:50;33.17;;;16.37;;
15946;SDS011;8072;52.554;7.966;2023-02-15T08:56:19;28.03;;;15.73;;
15946;SDS011;8072;52.554;7.966;2023-02-15T08:58:47;31.37;;;16.40;;
15946;SDS011;8072;52.554;7.966;2023-02-15T09:01:14;28.13;;;16.17;;
15946;SDS011;8072;52.554;7.966;2023-02-15T09:03:46;29.03;;;16.17;;
15946;SDS011;8072;52.554;7.966;2023-02-15T09:06:13;30.93;;;15.87;;
15946;SDS011;8072;52.554;7.966;2023-02-15T09:08:39;31.60;;;17.07;;
15946;SDS011;8072;52.554;7.966;2023-02-15T09:11:09;32.67;;;16.73;;
15946;SDS011;8072;52.554;7.966;2023-02-15T09:13:37;31.80;;;16.23;;
15946;SDS011;8072;52.554;7.966;2023-02-15T09:16:05;29.30;;;16.13;;
15946;SDS011;8072;52.554;7.966;2023-02-15T09:18:34;27.93;;;16.00;;
15946;SDS011;8072;52.554;7.966;2023-02-15T09:21:04;28.80;;;15.63;;
15946;SDS011;8072;52.554;7.966;2023-02-15T09:23:31;32.50;;;16.37;;
15946;SDS011;8072;52.554;7.966;2023-02-15T09:25:57;28.00;;;16.00;;
15946;SDS011;8072;52.554;7.966;2023-02-15T09:28:28;30.33;;;15.87;;
15946;SDS011;8072;52.554;7.966;2023-02-15T09:30:53;26.73;;;15.37;;
15946;SDS011;8072;52.554;7.966;2023-02-15T09:33:20;25.97;;;14.13;;
15946;SDS011;8072;52.554;7.966;2023-02-15T09:35:47;27.50;;;14.67;;
15946;SDS011;8072;52.554;7.966;2023-02-15T09:38:12;27.67;;;15.30;;
15946;SDS011;8072;52.554;7.966;2023-02-15T09:40:40;27.77;;;15.17;;
15946;SDS011;8072;52.554;7.966;2023-02-15T09:43:21;27.60;;;14.93;;
15946;SDS011;8072;52.554;7.966;2023-02-15T09:46:22;30.13;;;14.27;;
15946;SDS011;8072;52.554;7.966;2023-02-15T09:48:55;30.87;;;14.77;;
15946;SDS011;8072;52.554;7.966;2023-02-15T09:52:01;28.30;;;14.33;;
15946;SDS011;8072;52.554;7.966;2023-02-15T09:58:23;28.87;;;14.90;;
15946;SDS011;8072;52.554;7.966;2023-02-15T10:03:59;27.33;;;15.83;;
15946;SDS011;8072;52.554;7.966;2023-02-15T10:06:41;28.53;;;15.47;;
15946;SDS011;8072;52.554;7.966;2023-02-15T10:10:00;31.33;;;16.33;;
15946;SDS011;8072;52.554;7.966;2023-02-15T10:25:30;32.13;;;16.43;;
15946;SDS011;8072;52.554;7.966;2023-02-15T10:28:09;28.30;;;16.10;;
15946;SDS011;8072;52.554;7.966;2023-02-15T10:30:53;30.17;;;15.63;;
15946;SDS011;8072;52.554;7.966;2023-02-15T10:33:39;32.30;;;16.00;;
15946;SDS011;8072;52.554;7.966;2023-02-15T10:36:13;35.50;;;17.40;;
15946;SDS011;8072;52.554;7.966;2023-02-15T10:39:02;31.33;;;15.97;;
15946;SDS011;8072;52.554;7.966;2023-02-15T10:50:52;34.80;;;18.37;;
15946;SDS011;8072;52.554;7.966;2023-02-15T11:04:46;37.50;;;18.93;;
15946;SDS011;8072;52.554;7.966;2023-02-15T11:07:26;38.10;;;19.13;;
15946;SDS011;8072;52.554;7.966;2023-02-15T11:12:54;39.53;;;20.37;;
15946;SDS011;8072;52.554;7.966;2023-02-15T11:15:33;38.27;;;19.10;;
15946;SDS011;8072;52.554;7.966;2023-02-15T11:20:43;38.07;;;20.30;;
15946;SDS011;8072;52.554;7.966;2023-02-15T11:23:19;34.27;;;19.27;;
15946;SDS011;8072;52.554;7.966;2023-02-15T11:25:52;39.53;;;20.27;;
15946;SDS011;8072;52.554;7.966;2023-02-15T11:28:28;34.93;;;20.40;;
15946;SDS011;8072;52.554;7.966;2023-02-15T11:31:08;37.00;;;20.27;;
15946;SDS011;8072;52.554;7.966;2023-02-15T11:33:42;37.03;;;19.47;;
15946;SDS011;8072;52.554;7.966;2023-02-15T11:36:15;33.00;;;18.67;;
15946;SDS011;8072;52.554;7.966;2023-02-15T11:38:48;35.67;;;19.13;;
15946;SDS011;8072;52.554;7.966;2023-02-15T11:41:19;35.77;;;19.47;;
15946;SDS011;8072;52.554;7.966;2023-02-15T11:46:18;38.83;;;19.70;;
15946;SDS011;8072;52.554;7.966;2023-02-15T11:48:45;35.37;;;19.17;;
15946;SDS011;8072;52.554;7.966;2023-02-15T11:51:12;34.87;;;18.53;;
15946;SDS011;8072;52.554;7.966;2023-02-15T11:53:41;38.07;;;19.93;;
15946;SDS011;8072;52.554;7.966;2023-02-15T11:56:15;37.17;;;19.90;;
15946;SDS011;8072;52.554;7.966;2023-02-15T11:59:05;38.37;;;19.07;;
15946;SDS011;8072;52.554;7.966;2023-02-15T12:01:43;33.60;;;18.67;;
15946;SDS011;8072;52.554;7.966;2023-02-15T12:14:53;35.40;;;19.50;;
15946;SDS011;8072;52.554;7.966;2023-02-15T12:17:39;34.23;;;19.67;;
15946;SDS011;8072;52.554;7.966;2023-02-15T12:22:46;36.80;;;19.40;;
15946;SDS011;8072;52.554;7.966;2023-02-15T12:25:24;36.17;;;18.90;;
15946;SDS011;8072;52.554;7.966;2023-02-15T12:27:57;35.90;;;20.03;;
15946;SDS011;8072;52.554;7.966;2023-02-15T12:30:25;33.90;;;18.43;;
15946;SDS011;8072;52.554;7.966;2023-02-15T12:33:13;34.27;;;17.90;;
15946;SDS011;8072;52.554;7.966;2023-02-15T12:35:41;35.27;;;19.00;;
15946;SDS011;8072;52.554;7.966;2023-02-15T12:40:37;33.10;;;19.13;;
15946;SDS011;8072;52.554;7.966;2023-02-15T12:43:08;35.13;;;19.37;;
15946;SDS011;8072;52.554;7.966;2023-02-15T12:46:06;35.97;;;20.17;;
15946;SDS011;8072;52.554;7.966;2023-02-15T12:49:05;36.07;;;19.63;;
15946;SDS011;8072;52.554;7.966;2023-02-15T12:51:47;35.90;;;19.27;;
15946;SDS011;8072;52.554;7.966;2023-02-15T12:54:40;35.60;;;19.70;;
15946;SDS011;8072;52.554;7.966;2023-02-15T13:05:13;35.67;;;19.67;;
15946;SDS011;8072;52.554;7.966;2023-02-15T13:07:50;43.27;;;20.83;;
15946;SDS011;8072;52.554;7.966;2023-02-15T13:10:22;37.30;;;20.53;;
15946;SDS011;8072;52.554;7.966;2023-02-15T13:12:56;38.13;;;21.70;;
15946;SDS011;8072;52.554;7.966;2023-02-15T13:15:27;38.43;;;20.33;;
15946;SDS011;8072;52.554;7.966;2023-02-15T13:18:02;38.70;;;20.33;;
15946;SDS011;8072;52.554;7.966;2023-02-15T13:20:30;39.63;;;20.83;;
15946;SDS011;8072;52.554;7.966;2023-02-15T13:23:01;38.53;;;22.10;;
15946;SDS011;8072;52.554;7.966;2023-02-15T13:25:32;36.70;;;19.87;;
15946;SDS011;8072;52.554;7.966;2023-02-15T13:28:05;35.10;;;19.73;;
15946;SDS011;8072;52.554;7.966;2023-02-15T13:30:35;38.37;;;21.00;;
15946;SDS011;8072;52.554;7.966;2023-02-15T13:33:24;40.03;;;20.80;;
15946;SDS011;8072;52.554;7.966;2023-02-15T13:36:12;35.67;;;19.77;;
15946;SDS011;8072;52.554;7.966;2023-02-15T13:39:29;34.57;;;18.77;;
15946;SDS011;8072;52.554;7.966;2023-02-15T13:46:56;38.37;;;20.47;;
15946;SDS011;8072;52.554;7.966;2023-02-15T13:52:33;39.23;;;21.37;;
15946;SDS011;8072;52.554;7.966;2023-02-15T14:22:41;38.47;;;20.80;;
15946;SDS011;8072;52.554;7.966;2023-02-15T14:30:38;39.97;;;19.67;;
15946;SDS011;8072;52.554;7.966;2023-02-15T14:33:15;37.73;;;19.57;;
15946;SDS011;8072;52.554;7.966;2023-02-15T14:35:55;36.80;;;19.57;;
15946;SDS011;8072;52.554;7.966;2023-02-15T14:41:11;35.90;;;19.33;;
15946;SDS011;8072;52.554;7.966;2023-02-15T14:49:25;41.57;;;19.13;;
15946;SDS011;8072;52.554;7.966;2023-02-15T14:52:03;39.70;;;18.37;;
15946;SDS011;8072;52.554;7.966;2023-02-15T15:02:25;37.03;;;19.03;;
15946;SDS011;8072;52.554;7.966;2023-02-15T15:05:32;37.23;;;17.67;;
15946;SDS011;8072;52.554;7.966;2023-02-15T15:08:00;42.03;;;19.60;;
15946;SDS011;8072;52.554;7.966;2023-02-15T15:10:39;34.87;;;17.83;;
15946;SDS011;8072;52.554;7.966;2023-02-15T15:15:55;38.80;;;18.90;;
15946;SDS011;8072;52.554;7.966;2023-02-15T15:21:10;34.60;;;17.97;;
15946;SDS011;8072;52.554;7.966;2023-02-15T15:26:21;38.97;;;18.20;;
15946;SDS011;8072;52.554;7.966;2023-02-15T15:31:24;34.30;;;18.17;;
15946;SDS011;8072;52.554;7.966;2023-02-15T15:39:59;36.33;;;17.87;;
15946;SDS011;8072;52.554;7.966;2023-02-15T15:46:04;36.27;;;17.33;;
15946;SDS011;8072;52.554;7.966;2023-02-15T15:48:41;33.83;;;17.90;;
15946;SDS011;8072;52.554;7.966;2023-02-15T15:51:17;40.37;;;18.53;;
15946;SDS011;8072;52.554;7.966;2023-02-15T15:53:45;36.73;;;18.23;;
15946;SDS011;8072;52.554;7.966;2023-02-15T15:56:22;35.87;;;18.77;;
15946;SDS011;8072;52.554;7.966;2023-02-15T15:59:00;36.50;;;18.80;;
15946;SDS011;8072;52.554;7.966;2023-02-15T16:01:44;36.77;;;18.80;;
15946;SDS011;8072;52.554;7.966;2023-02-15T16:04:21;35.37;;;18.03;;
15946;SDS011;8072;52.554;7.966;2023-02-15T16:06:51;36.23;;;18.90;;
15946;SDS011;8072;52.554;7.966;2023-02-15T16:09:19;35.53;;;17.67;;
15946;SDS011;8072;52.554;7.966;2023-02-15T16:11:48;34.07;;;18.60;;
15946;SDS011;8072;52.554;7.966;2023-02-15T16:14:29;36.03;;;18.23;;
15946;SDS011;8072;52.554;7.966;2023-02-15T16:16:58;39.50;;;19.70;;
15946;SDS011;8072;52.554;7.966;2023-02-15T16:19:30;38.20;;;19.87;;
15946;SDS011;8072;52.554;7.966;2023-02-15T16:22:01;40.30;;;19.30;;
15946;SDS011;8072;52.554;7.966;2023-02-15T16:29:45;36.90;;;18.87;;
15946;SDS011;8072;52.554;7.966;2023-02-15T16:32:16;34.93;;;18.20;;
15946;SDS011;8072;52.554;7.966;2023-02-15T16:34:56;40.33;;;18.77;;
15946;SDS011;8072;52.554;7.966;2023-02-15T16:37:26;43.97;;;19.57;;
15946;SDS011;8072;52.554;7.966;2023-02-15T16:39:55;44.97;;;20.47;;
15946;SDS011;8072;52.554;7.966;2023-02-15T16:42:21;40.43;;;20.63;;
15946;SDS011;8072;52.554;7.966;2023-02-15T16:44:50;40.00;;;18.43;;
15946;SDS011;8072;52.554;7.966;2023-02-15T16:47:24;47.67;;;19.97;;
15946;SDS011;8072;52.554;7.966;2023-02-15T16:49:52;34.77;;;18.70;;
15946;SDS011;8072;52.554;7.966;2023-02-15T16:52:24;39.77;;;19.37;;
15946;SDS011;8072;52.554;7.966;2023-02-15T16:54:53;37.73;;;19.27;;
15946;SDS011;8072;52.554;7.966;2023-02-15T16:57:23;40.33;;;17.73;;
15946;SDS011;8072;52.554;7.966;2023-02-15T16:59:52;36.80;;;18.40;;
15946;SDS011;8072;52.554;7.966;2023-02-15T17:02:23;38.97;;;19.47;;
15946;SDS011;8072;52.554;7.966;2023-02-15T17:05:13;32.53;;;17.63;;
15946;SDS011;8072;52.554;7.966;2023-02-15T17:07:48;38.93;;;18.73;;
15946;SDS011;8072;52.554;7.966;2023-02-15T17:10:38;41.23;;;19.67;;
15946;SDS011;8072;52.554;7.966;2023-02-15T17:15:38;39.83;;;18.93;;
15946;SDS011;8072;52.554;7.966;2023-02-15T17:20:56;40.63;;;19.20;;
15946;SDS011;8072;52.554;7.966;2023-02-15T17:23:28;37.37;;;18.40;;
15946;SDS011;8072;52.554;7.966;2023-02-15T17:26:01;35.03;;;18.40;;
15946;SDS011;8072;52.554;7.966;2023-02-15T17:29:09;39.00;;;19.13;;
15946;SDS011;8072;52.554;7.966;2023-02-15T17:31:56;38.13;;;18.83;;
15946;SDS011;8072;52.554;7.966;2023-02-15T17:37:41;37.17;;;18.03;;
15946;SDS011;8072;52.554;7.966;2023-02-15T17:39:56;39.80;;;19.27;;
15946;SDS011;8072;52.554;7.966;2023-02-15T17:42:23;43.57;;;20.53;;
15946;SDS011;8072;52.554;7.966;2023-02-15T17:44:49;32.80;;;17.97;;
15946;SDS011;8072;52.554;7.966;2023-02-15T17:47:19;41.73;;;19.23;;
15946;SDS011;8072;52.554;7.966;2023-02-15T17:49:47;38.33;;;18.87;;
15946;SDS011;8072;52.554;7.966;2023-02-15T17:52:16;34.70;;;19.57;;
15946;SDS011;8072;52.554;7.966;2023-02-15T17:54:43;40.27;;;19.93;;
15946;SDS011;8072;52.554;7.966;2023-02-15T17:57:28;37.90;;;19.00;;
15946;SDS011;8072;52.554;7.966;2023-02-15T17:59:55;43.60;;;19.60;;
15946;SDS011;8072;52.554;7.966;2023-02-15T18:02:39;38.67;;;19.80;;
15946;SDS011;8072;52.554;7.966;2023-02-15T18:05:23;36.80;;;19.30;;
15946;SDS011;8072;52.554;7.966;2023-02-15T18:08:18;42.87;;;19.70;;
15946;SDS011;8072;52.554;7.966;2023-02-15T18:11:09;37.70;;;19.00;;
15946;SDS011;8072;52.554;7.966;2023-02-15T18:13:54;34.97;;;18.00;;
15946;SDS011;8072;52.554;7.966;2023-02-15T18:16:22;39.57;;;20.43;;
15946;SDS011;8072;52.554;7.966;2023-02-15T18:18:50;36.23;;;18.93;;
15946;SDS011;8072;52.554;7.966;2023-02-15T18:21:17;41.13;;;20.03;;
15946;SDS011;8072;52.554;7.966;2023-02-15T18:23:43;40.10;;;19.77;;
15946;SDS011;8072;52.554;7.966;2023-02-15T18:26:16;41.47;;;20.10;;
15946;SDS011;8072;52.554;7.966;2023-02-15T18:28:45;38.43;;;19.90;;